sensor_id;sensor_type;location;lat;lon;timestamp;temperature;humidity
2763;DHT22;1389;51.490;7.338;2022-12-29T00:01:33;10.40;99.30
2763;DHT22;1389;51.490;7.338;2022-12-29T00:03:59;10.40;99.30
2763;DHT22;1389;51.490;7.338;2022-12-29T00:06:25;10.40;99.30
2763;DHT22;1389;51.490;7.338;2022-12-29T00:08:51;10.40;99.30
2763;DHT22;1389;51.490;7.338;2022-12-29T00:11:23;10.40;99.30
2763;DHT22;1389;51.490;7.338;2022-12-29T00:13:50;10.50;99.30
2763;DHT22;1389;51.490;7.338;2022-12-29T00:16:36;10.50;99.30
2763;DHT22;1389;51.490;7.338;2022-12-29T00:19:04;10.50;99.30
2763;DHT22;1389;51.490;7.338;2022-12-29T00:21:30;10.40;99.30
2763;DHT22;1389;51.490;7.338;2022-12-29T00:24:20;10.50;99.30
2763;DHT22;1389;51.490;7.338;2022-12-29T00:26:59;10.50;99.30
2763;DHT22;1389;51.490;7.338;2022-12-29T00:29:51;10.50;99.30
2763;DHT22;1389;51.490;7.338;2022-12-29T00:32:36;10.50;99.30
2763;DHT22;1389;51.490;7.338;2022-12-29T00:35:33;10.50;99.30
2763;DHT22;1389;51.490;7.338;2022-12-29T00:38:04;10.40;99.30
2763;DHT22;1389;51.490;7.338;2022-12-29T00:40:49;10.50;99.30
2763;DHT22;1389;51.490;7.338;2022-12-29T00:43:34;10.50;99.30
2763;DHT22;1389;51.490;7.338;2022-12-29T00:46:19;10.50;99.30
2763;DHT22;1389;51.490;7.338;2022-12-29T00:48:45;10.50;99.30
2763;DHT22;1389;51.490;7.338;2022-12-29T00:51:29;10.50;99.30
2763;DHT22;1389;51.490;7.338;2022-12-29T00:53:55;10.50;99.30
2763;DHT22;1389;51.490;7.338;2022-12-29T00:56:21;10.50;99.30
2763;DHT22;1389;51.490;7.338;2022-12-29T00:58:48;10.50;99.30
2763;DHT22;1389;51.490;7.338;2022-12-29T01:01:14;10.50;99.30
2763;DHT22;1389;51.490;7.338;2022-12-29T01:03:42;10.50;99.30
2763;DHT22;1389;51.490;7.338;2022-12-29T01:06:10;10.50;99.30
2763;DHT22;1389;51.490;7.338;2022-12-29T01:08:36;10.50;99.30
2763;DHT22;1389;51.490;7.338;2022-12-29T01:11:11;10.60;99.30
2763;DHT22;1389;51.490;7.338;2022-12-29T01:13:37;10.60;99.30
2763;DHT22;1389;51.490;7.338;2022-12-29T01:16:05;10.60;99.30
2763;DHT22;1389;51.490;7.338;2022-12-29T01:18:31;10.60;99.30
2763;DHT22;1389;51.490;7.338;2022-12-29T01:21:05;10.60;99.30
2763;DHT22;1389;51.490;7.338;2022-12-29T01:23:31;10.60;99.30
2763;DHT22;1389;51.490;7.338;2022-12-29T01:26:11;10.60;99.30
2763;DHT22;1389;51.490;7.338;2022-12-29T01:28:38;10.60;99.30
2763;DHT22;1389;51.490;7.338;2022-12-29T01:31:06;10.70;99.30
2763;DHT22;1389;51.490;7.338;2022-12-29T01:33:32;10.70;99.30
2763;DHT22;1389;51.490;7.338;2022-12-29T01:36:02;10.70;99.30
2763;DHT22;1389;51.490;7.338;2022-12-29T01:38:28;10.70;99.30
2763;DHT22;1389;51.490;7.338;2022-12-29T01:40:54;10.70;99.30
2763;DHT22;1389;51.490;7.338;2022-12-29T01:43:20;10.80;99.30
2763;DHT22;1389;51.490;7.338;2022-12-29T01:45:51;10.80;99.30
2763;DHT22;1389;51.490;7.338;2022-12-29T01:48:19;10.80;99.30
2763;DHT22;1389;51.490;7.338;2022-12-29T01:50:50;10.80;99.30
2763;DHT22;1389;51.490;7.338;2022-12-29T01:53:29;10.80;99.30
2763;DHT22;1389;51.490;7.338;2022-12-29T01:56:00;10.80;99.30
2763;DHT22;1389;51.490;7.338;2022-12-29T01:58:30;10.70;99.30
2763;DHT22;1389;51.490;7.338;2022-12-29T02:00:58;10.80;99.30
2763;DHT22;1389;51.490;7.338;2022-12-29T02:03:26;10.80;99.30
2763;DHT22;1389;51.490;7.338;2022-12-29T02:05:57;10.80;99.30
2763;DHT22;1389;51.490;7.338;2022-12-29T02:08:28;10.80;99.30
2763;DHT22;1389;51.490;7.338;2022-12-29T02:10:56;10.80;99.30
2763;DHT22;1389;51.490;7.338;2022-12-29T02:13:26;10.80;99.30
2763;DHT22;1389;51.490;7.338;2022-12-29T02:30:52;10.90;99.30
2763;DHT22;1389;51.490;7.338;2022-12-29T02:36:47;10.90;99.30
2763;DHT22;1389;51.490;7.338;2022-12-29T02:39:22;11.00;99.30
2763;DHT22;1389;51.490;7.338;2022-12-29T02:42:03;11.00;99.30
2763;DHT22;1389;51.490;7.338;2022-12-29T02:44:41;11.00;99.30
2763;DHT22;1389;51.490;7.338;2022-12-29T02:49:49;11.10;98.90
2763;DHT22;1389;51.490;7.338;2022-12-29T02:52:26;11.10;99.00
2763;DHT22;1389;51.490;7.338;2022-12-29T02:54:54;11.10;99.10
2763;DHT22;1389;51.490;7.338;2022-12-29T02:59:47;11.10;98.40
2763;DHT22;1389;51.490;7.338;2022-12-29T03:05:45;11.10;98.10
2763;DHT22;1389;51.490;7.338;2022-12-29T03:08:23;11.10;98.00
2763;DHT22;1389;51.490;7.338;2022-12-29T03:11:03;11.10;97.50
2763;DHT22;1389;51.490;7.338;2022-12-29T03:16:28;11.10;97.60
2763;DHT22;1389;51.490;7.338;2022-12-29T03:19:14;11.20;97.60
2763;DHT22;1389;51.490;7.338;2022-12-29T03:21:56;11.20;97.20
2763;DHT22;1389;51.490;7.338;2022-12-29T03:24:44;11.20;96.70
2763;DHT22;1389;51.490;7.338;2022-12-29T03:27:17;11.20;96.20
2763;DHT22;1389;51.490;7.338;2022-12-29T03:29:51;11.30;95.70
2763;DHT22;1389;51.490;7.338;2022-12-29T03:32:30;11.40;95.00
2763;DHT22;1389;51.490;7.338;2022-12-29T03:34:58;11.40;95.10
2763;DHT22;1389;51.490;7.338;2022-12-29T03:37:28;11.40;95.10
2763;DHT22;1389;51.490;7.338;2022-12-29T03:39:57;11.40;94.90
2763;DHT22;1389;51.490;7.338;2022-12-29T03:42:26;11.30;94.90
2763;DHT22;1389;51.490;7.338;2022-12-29T03:44:54;11.30;95.00
2763;DHT22;1389;51.490;7.338;2022-12-29T03:47:22;11.30;95.30
2763;DHT22;1389;51.490;7.338;2022-12-29T03:49:50;11.40;95.20
2763;DHT22;1389;51.490;7.338;2022-12-29T03:52:16;11.40;95.60
2763;DHT22;1389;51.490;7.338;2022-12-29T03:54:43;11.40;95.60
2763;DHT22;1389;51.490;7.338;2022-12-29T03:57:12;11.30;95.50
2763;DHT22;1389;51.490;7.338;2022-12-29T03:59:38;11.20;95.80
2763;DHT22;1389;51.490;7.338;2022-12-29T04:02:04;11.10;96.20
2763;DHT22;1389;51.490;7.338;2022-12-29T04:04:30;11.00;96.90
2763;DHT22;1389;51.490;7.338;2022-12-29T04:06:56;10.90;97.60
2763;DHT22;1389;51.490;7.338;2022-12-29T04:09:22;10.80;97.90
2763;DHT22;1389;51.490;7.338;2022-12-29T04:11:48;10.80;98.70
2763;DHT22;1389;51.490;7.338;2022-12-29T04:14:14;10.80;99.10
2763;DHT22;1389;51.490;7.338;2022-12-29T04:16:41;10.80;99.30
2763;DHT22;1389;51.490;7.338;2022-12-29T04:19:07;10.80;99.30
2763;DHT22;1389;51.490;7.338;2022-12-29T04:21:34;10.80;99.30
2763;DHT22;1389;51.490;7.338;2022-12-29T04:24:00;10.80;99.30
2763;DHT22;1389;51.490;7.338;2022-12-29T04:26:26;10.80;99.30
2763;DHT22;1389;51.490;7.338;2022-12-29T04:28:52;10.80;99.30
2763;DHT22;1389;51.490;7.338;2022-12-29T04:31:18;10.80;99.30
2763;DHT22;1389;51.490;7.338;2022-12-29T04:33:44;10.80;99.30
2763;DHT22;1389;51.490;7.338;2022-12-29T04:36:10;10.80;99.30
2763;DHT22;1389;51.490;7.338;2022-12-29T04:38:36;10.80;99.30
2763;DHT22;1389;51.490;7.338;2022-12-29T04:41:02;10.80;99.30
2763;DHT22;1389;51.490;7.338;2022-12-29T04:43:29;10.90;99.30
2763;DHT22;1389;51.490;7.338;2022-12-29T04:45:55;10.80;99.30
2763;DHT22;1389;51.490;7.338;2022-12-29T04:48:21;10.90;99.30
2763;DHT22;1389;51.490;7.338;2022-12-29T04:50:48;11.00;99.10
2763;DHT22;1389;51.490;7.338;2022-12-29T04:53:15;11.00;99.00
2763;DHT22;1389;51.490;7.338;2022-12-29T04:55:42;11.10;98.60
2763;DHT22;1389;51.490;7.338;2022-12-29T04:58:08;11.10;98.10
2763;DHT22;1389;51.490;7.338;2022-12-29T05:00:34;11.20;97.80
2763;DHT22;1389;51.490;7.338;2022-12-29T05:03:00;11.30;96.70
2763;DHT22;1389;51.490;7.338;2022-12-29T05:05:26;11.30;96.10
2763;DHT22;1389;51.490;7.338;2022-12-29T05:07:52;11.40;95.90
2763;DHT22;1389;51.490;7.338;2022-12-29T05:10:18;11.40;95.20
2763;DHT22;1389;51.490;7.338;2022-12-29T05:12:45;11.50;94.00
2763;DHT22;1389;51.490;7.338;2022-12-29T05:15:11;11.50;93.40
2763;DHT22;1389;51.490;7.338;2022-12-29T05:17:37;11.60;93.10
2763;DHT22;1389;51.490;7.338;2022-12-29T05:20:05;11.60;93.20
2763;DHT22;1389;51.490;7.338;2022-12-29T05:22:31;11.60;93.20
2763;DHT22;1389;51.490;7.338;2022-12-29T05:24:57;11.70;92.30
2763;DHT22;1389;51.490;7.338;2022-12-29T05:27:23;11.70;92.30
2763;DHT22;1389;51.490;7.338;2022-12-29T05:29:49;11.70;91.80
2763;DHT22;1389;51.490;7.338;2022-12-29T05:32:15;11.80;91.60
2763;DHT22;1389;51.490;7.338;2022-12-29T05:34:41;11.70;91.70
2763;DHT22;1389;51.490;7.338;2022-12-29T05:37:07;11.80;90.90
2763;DHT22;1389;51.490;7.338;2022-12-29T05:39:33;11.80;90.40
2763;DHT22;1389;51.490;7.338;2022-12-29T05:41:59;11.80;91.00
2763;DHT22;1389;51.490;7.338;2022-12-29T05:44:25;11.80;90.80
2763;DHT22;1389;51.490;7.338;2022-12-29T05:46:51;11.80;90.60
2763;DHT22;1389;51.490;7.338;2022-12-29T05:49:18;11.80;90.50
2763;DHT22;1389;51.490;7.338;2022-12-29T05:51:44;11.90;90.20
2763;DHT22;1389;51.490;7.338;2022-12-29T05:54:10;11.90;89.50
2763;DHT22;1389;51.490;7.338;2022-12-29T05:56:36;11.90;89.40
2763;DHT22;1389;51.490;7.338;2022-12-29T05:59:02;12.00;89.30
2763;DHT22;1389;51.490;7.338;2022-12-29T06:01:28;12.00;89.10
2763;DHT22;1389;51.490;7.338;2022-12-29T06:03:54;12.00;88.90
2763;DHT22;1389;51.490;7.338;2022-12-29T06:06:20;12.00;89.10
2763;DHT22;1389;51.490;7.338;2022-12-29T06:08:46;12.00;88.60
2763;DHT22;1389;51.490;7.338;2022-12-29T06:11:12;12.00;89.30
2763;DHT22;1389;51.490;7.338;2022-12-29T06:13:39;12.00;89.10
2763;DHT22;1389;51.490;7.338;2022-12-29T06:16:06;12.00;89.60
2763;DHT22;1389;51.490;7.338;2022-12-29T06:18:32;12.00;88.10
2763;DHT22;1389;51.490;7.338;2022-12-29T06:21:02;12.00;88.50
2763;DHT22;1389;51.490;7.338;2022-12-29T06:23:29;12.00;88.20
2763;DHT22;1389;51.490;7.338;2022-12-29T06:25:55;12.10;88.10
2763;DHT22;1389;51.490;7.338;2022-12-29T06:28:22;12.10;87.70
2763;DHT22;1389;51.490;7.338;2022-12-29T06:30:48;12.10;87.30
2763;DHT22;1389;51.490;7.338;2022-12-29T06:33:14;12.20;87.60
2763;DHT22;1389;51.490;7.338;2022-12-29T06:35:56;12.20;87.40
2763;DHT22;1389;51.490;7.338;2022-12-29T06:38:23;12.20;87.10
2763;DHT22;1389;51.490;7.338;2022-12-29T06:40:49;12.20;87.70
2763;DHT22;1389;51.490;7.338;2022-12-29T06:43:15;12.20;87.90
2763;DHT22;1389;51.490;7.338;2022-12-29T06:45:41;12.10;87.20
2763;DHT22;1389;51.490;7.338;2022-12-29T06:48:07;12.10;86.60
2763;DHT22;1389;51.490;7.338;2022-12-29T06:50:33;12.10;87.20
2763;DHT22;1389;51.490;7.338;2022-12-29T06:52:59;12.10;87.00
2763;DHT22;1389;51.490;7.338;2022-12-29T06:55:25;12.10;86.40
2763;DHT22;1389;51.490;7.338;2022-12-29T06:57:54;12.10;86.90
2763;DHT22;1389;51.490;7.338;2022-12-29T07:00:21;12.10;86.70
2763;DHT22;1389;51.490;7.338;2022-12-29T07:02:47;12.20;86.20
2763;DHT22;1389;51.490;7.338;2022-12-29T07:05:13;12.10;86.40
2763;DHT22;1389;51.490;7.338;2022-12-29T07:07:40;12.10;86.30
2763;DHT22;1389;51.490;7.338;2022-12-29T07:10:06;12.10;86.00
2763;DHT22;1389;51.490;7.338;2022-12-29T07:12:32;12.10;86.40
2763;DHT22;1389;51.490;7.338;2022-12-29T07:14:58;12.10;87.00
2763;DHT22;1389;51.490;7.338;2022-12-29T07:17:24;12.10;87.40
2763;DHT22;1389;51.490;7.338;2022-12-29T07:19:50;12.10;86.70
2763;DHT22;1389;51.490;7.338;2022-12-29T07:22:16;12.00;87.00
2763;DHT22;1389;51.490;7.338;2022-12-29T07:24:42;12.00;87.00
2763;DHT22;1389;51.490;7.338;2022-12-29T07:27:09;12.00;86.70
2763;DHT22;1389;51.490;7.338;2022-12-29T07:29:37;12.00;86.50
2763;DHT22;1389;51.490;7.338;2022-12-29T07:32:03;12.00;86.60
2763;DHT22;1389;51.490;7.338;2022-12-29T07:34:29;12.00;87.40
2763;DHT22;1389;51.490;7.338;2022-12-29T07:36:55;11.90;88.60
2763;DHT22;1389;51.490;7.338;2022-12-29T07:39:21;11.90;88.40
2763;DHT22;1389;51.490;7.338;2022-12-29T07:41:47;11.90;87.90
2763;DHT22;1389;51.490;7.338;2022-12-29T07:44:13;11.90;86.50
2763;DHT22;1389;51.490;7.338;2022-12-29T07:46:39;11.90;86.50
2763;DHT22;1389;51.490;7.338;2022-12-29T07:49:05;11.90;87.10
2763;DHT22;1389;51.490;7.338;2022-12-29T07:51:32;11.90;86.50
2763;DHT22;1389;51.490;7.338;2022-12-29T07:53:58;11.90;86.50
2763;DHT22;1389;51.490;7.338;2022-12-29T07:56:26;11.90;85.70
2763;DHT22;1389;51.490;7.338;2022-12-29T07:58:52;11.80;84.50
2763;DHT22;1389;51.490;7.338;2022-12-29T08:01:18;11.80;84.80
2763;DHT22;1389;51.490;7.338;2022-12-29T08:03:44;11.80;84.70
2763;DHT22;1389;51.490;7.338;2022-12-29T08:06:11;11.90;84.20
2763;DHT22;1389;51.490;7.338;2022-12-29T08:08:37;11.90;83.80
2763;DHT22;1389;51.490;7.338;2022-12-29T08:11:04;11.90;84.10
2763;DHT22;1389;51.490;7.338;2022-12-29T08:13:30;11.90;83.40
2763;DHT22;1389;51.490;7.338;2022-12-29T08:15:57;11.90;84.50
2763;DHT22;1389;51.490;7.338;2022-12-29T08:18:23;11.90;83.70
2763;DHT22;1389;51.490;7.338;2022-12-29T08:20:50;11.90;83.20
2763;DHT22;1389;51.490;7.338;2022-12-29T08:23:16;11.90;83.50
2763;DHT22;1389;51.490;7.338;2022-12-29T08:25:42;12.00;83.40
2763;DHT22;1389;51.490;7.338;2022-12-29T08:28:08;11.90;84.00
2763;DHT22;1389;51.490;7.338;2022-12-29T08:30:35;11.90;83.40
2763;DHT22;1389;51.490;7.338;2022-12-29T08:33:02;11.90;82.70
2763;DHT22;1389;51.490;7.338;2022-12-29T08:35:28;11.90;82.70
2763;DHT22;1389;51.490;7.338;2022-12-29T08:37:54;11.90;83.20
2763;DHT22;1389;51.490;7.338;2022-12-29T08:40:20;12.00;82.70
2763;DHT22;1389;51.490;7.338;2022-12-29T08:42:46;11.90;82.80
2763;DHT22;1389;51.490;7.338;2022-12-29T08:45:12;11.90;82.10
2763;DHT22;1389;51.490;7.338;2022-12-29T08:47:38;11.90;82.20
2763;DHT22;1389;51.490;7.338;2022-12-29T08:50:04;12.00;82.30
2763;DHT22;1389;51.490;7.338;2022-12-29T08:52:30;11.90;82.50
2763;DHT22;1389;51.490;7.338;2022-12-29T08:54:56;11.90;82.10
2763;DHT22;1389;51.490;7.338;2022-12-29T08:57:22;11.90;82.10
2763;DHT22;1389;51.490;7.338;2022-12-29T08:59:48;11.90;82.40
2763;DHT22;1389;51.490;7.338;2022-12-29T09:02:15;12.00;82.50
2763;DHT22;1389;51.490;7.338;2022-12-29T09:04:41;12.00;82.90
2763;DHT22;1389;51.490;7.338;2022-12-29T09:07:07;11.90;82.60
2763;DHT22;1389;51.490;7.338;2022-12-29T09:09:33;11.90;83.40
2763;DHT22;1389;51.490;7.338;2022-12-29T09:11:59;11.80;83.70
2763;DHT22;1389;51.490;7.338;2022-12-29T09:14:25;11.80;84.90
2763;DHT22;1389;51.490;7.338;2022-12-29T09:16:52;11.80;85.40
2763;DHT22;1389;51.490;7.338;2022-12-29T09:19:36;11.80;85.80
2763;DHT22;1389;51.490;7.338;2022-12-29T09:22:02;11.70;86.20
2763;DHT22;1389;51.490;7.338;2022-12-29T09:24:28;11.60;85.70
2763;DHT22;1389;51.490;7.338;2022-12-29T09:26:54;11.50;86.10
2763;DHT22;1389;51.490;7.338;2022-12-29T09:29:21;11.60;85.80
2763;DHT22;1389;51.490;7.338;2022-12-29T09:31:47;11.60;85.60
2763;DHT22;1389;51.490;7.338;2022-12-29T09:34:13;11.50;85.40
2763;DHT22;1389;51.490;7.338;2022-12-29T09:36:39;11.50;84.30
2763;DHT22;1389;51.490;7.338;2022-12-29T09:39:05;11.60;83.80
2763;DHT22;1389;51.490;7.338;2022-12-29T09:41:49;11.60;84.80
2763;DHT22;1389;51.490;7.338;2022-12-29T09:45:10;11.60;84.70
2763;DHT22;1389;51.490;7.338;2022-12-29T09:47:11;11.60;84.50
2763;DHT22;1389;51.490;7.338;2022-12-29T09:52:31;11.70;83.50
2763;DHT22;1389;51.490;7.338;2022-12-29T09:57:27;11.80;84.50
2763;DHT22;1389;51.490;7.338;2022-12-29T10:00:06;11.80;83.70
2763;DHT22;1389;51.490;7.338;2022-12-29T10:02:39;11.80;83.90
2763;DHT22;1389;51.490;7.338;2022-12-29T10:05:20;11.80;84.10
2763;DHT22;1389;51.490;7.338;2022-12-29T10:16:51;11.90;84.70
2763;DHT22;1389;51.490;7.338;2022-12-29T10:19:15;11.90;84.00
2763;DHT22;1389;51.490;7.338;2022-12-29T10:24:28;11.90;83.10
2763;DHT22;1389;51.490;7.338;2022-12-29T10:26:56;11.90;82.80
2763;DHT22;1389;51.490;7.338;2022-12-29T10:29:29;11.90;82.70
2763;DHT22;1389;51.490;7.338;2022-12-29T10:32:00;11.90;82.10
2763;DHT22;1389;51.490;7.338;2022-12-29T10:34:36;12.00;81.40
2763;DHT22;1389;51.490;7.338;2022-12-29T10:37:18;12.00;81.50
2763;DHT22;1389;51.490;7.338;2022-12-29T10:39:51;12.00;81.20
2763;DHT22;1389;51.490;7.338;2022-12-29T10:42:29;12.00;80.80
2763;DHT22;1389;51.490;7.338;2022-12-29T10:44:59;12.10;79.90
2763;DHT22;1389;51.490;7.338;2022-12-29T10:47:30;12.10;80.10
2763;DHT22;1389;51.490;7.338;2022-12-29T10:49:57;12.10;80.40
2763;DHT22;1389;51.490;7.338;2022-12-29T10:52:28;12.10;79.50
2763;DHT22;1389;51.490;7.338;2022-12-29T10:55:02;12.10;78.10
2763;DHT22;1389;51.490;7.338;2022-12-29T10:59:59;12.10;77.30
2763;DHT22;1389;51.490;7.338;2022-12-29T11:08:00;12.10;77.90
2763;DHT22;1389;51.490;7.338;2022-12-29T11:10:39;12.00;78.40
2763;DHT22;1389;51.490;7.338;2022-12-29T11:13:18;12.10;78.20
2763;DHT22;1389;51.490;7.338;2022-12-29T11:15:48;12.10;78.20
2763;DHT22;1389;51.490;7.338;2022-12-29T11:18:33;12.00;78.70
2763;DHT22;1389;51.490;7.338;2022-12-29T11:21:06;12.00;78.20
2763;DHT22;1389;51.490;7.338;2022-12-29T11:26:20;12.00;78.60
2763;DHT22;1389;51.490;7.338;2022-12-29T11:31:53;12.00;78.70
2763;DHT22;1389;51.490;7.338;2022-12-29T11:34:23;12.00;78.30
2763;DHT22;1389;51.490;7.338;2022-12-29T11:36:53;12.00;79.20
2763;DHT22;1389;51.490;7.338;2022-12-29T11:42:23;12.00;78.80
2763;DHT22;1389;51.490;7.338;2022-12-29T11:44:51;11.90;78.50
2763;DHT22;1389;51.490;7.338;2022-12-29T11:47:28;11.90;77.60
2763;DHT22;1389;51.490;7.338;2022-12-29T11:49:58;11.90;78.60
2763;DHT22;1389;51.490;7.338;2022-12-29T11:52:31;11.90;80.10
2763;DHT22;1389;51.490;7.338;2022-12-29T11:55:00;11.90;79.20
2763;DHT22;1389;51.490;7.338;2022-12-29T11:57:27;11.90;78.70
2763;DHT22;1389;51.490;7.338;2022-12-29T11:59:55;11.90;78.40
2763;DHT22;1389;51.490;7.338;2022-12-29T12:02:24;11.90;78.60
2763;DHT22;1389;51.490;7.338;2022-12-29T12:05:02;11.90;78.80
2763;DHT22;1389;51.490;7.338;2022-12-29T12:07:43;11.90;79.10
2763;DHT22;1389;51.490;7.338;2022-12-29T12:10:21;11.90;79.20
2763;DHT22;1389;51.490;7.338;2022-12-29T12:13:14;11.90;79.10
2763;DHT22;1389;51.490;7.338;2022-12-29T12:15:47;11.90;78.50
2763;DHT22;1389;51.490;7.338;2022-12-29T12:18:34;12.00;79.30
2763;DHT22;1389;51.490;7.338;2022-12-29T12:21:51;11.90;78.00
2763;DHT22;1389;51.490;7.338;2022-12-29T12:26:42;11.90;78.50
2763;DHT22;1389;51.490;7.338;2022-12-29T12:29:16;11.90;78.90
2763;DHT22;1389;51.490;7.338;2022-12-29T12:34:30;11.90;79.10
2763;DHT22;1389;51.490;7.338;2022-12-29T12:40:07;11.90;79.10
2763;DHT22;1389;51.490;7.338;2022-12-29T12:45:53;11.90;78.90
2763;DHT22;1389;51.490;7.338;2022-12-29T12:54:35;11.80;77.50
2763;DHT22;1389;51.490;7.338;2022-12-29T13:00:16;11.80;78.70
2763;DHT22;1389;51.490;7.338;2022-12-29T13:06:21;11.80;78.80
2763;DHT22;1389;51.490;7.338;2022-12-29T13:09:02;11.90;78.30
2763;DHT22;1389;51.490;7.338;2022-12-29T13:17:18;11.70;79.00
2763;DHT22;1389;51.490;7.338;2022-12-29T13:22:32;11.80;79.20
2763;DHT22;1389;51.490;7.338;2022-12-29T13:28:16;11.80;78.50
2763;DHT22;1389;51.490;7.338;2022-12-29T13:30:53;11.80;78.70
2763;DHT22;1389;51.490;7.338;2022-12-29T13:33:43;11.80;80.00
2763;DHT22;1389;51.490;7.338;2022-12-29T13:36:44;11.70;78.50
2763;DHT22;1389;51.490;7.338;2022-12-29T13:39:16;11.70;79.40
2763;DHT22;1389;51.490;7.338;2022-12-29T13:41:53;11.70;79.60
2763;DHT22;1389;51.490;7.338;2022-12-29T13:44:27;11.80;79.10
2763;DHT22;1389;51.490;7.338;2022-12-29T13:46:56;11.80;79.30
2763;DHT22;1389;51.490;7.338;2022-12-29T13:49:25;11.80;78.70
2763;DHT22;1389;51.490;7.338;2022-12-29T13:57:31;11.70;80.50
2763;DHT22;1389;51.490;7.338;2022-12-29T14:00:15;11.60;80.40
2763;DHT22;1389;51.490;7.338;2022-12-29T14:08:03;11.60;79.90
2763;DHT22;1389;51.490;7.338;2022-12-29T14:10:36;11.50;81.20
2763;DHT22;1389;51.490;7.338;2022-12-29T14:13:22;11.50;80.40
2763;DHT22;1389;51.490;7.338;2022-12-29T14:15:54;11.50;80.20
2763;DHT22;1389;51.490;7.338;2022-12-29T14:18:32;11.50;80.10
2763;DHT22;1389;51.490;7.338;2022-12-29T14:21:01;11.50;80.60
2763;DHT22;1389;51.490;7.338;2022-12-29T14:23:42;11.60;80.10
2763;DHT22;1389;51.490;7.338;2022-12-29T14:26:33;11.60;80.30
2763;DHT22;1389;51.490;7.338;2022-12-29T14:31:50;11.60;80.80
2763;DHT22;1389;51.490;7.338;2022-12-29T14:34:28;11.60;80.30
2763;DHT22;1389;51.490;7.338;2022-12-29T14:36:56;11.60;79.80
2763;DHT22;1389;51.490;7.338;2022-12-29T14:39:33;11.60;80.30
2763;DHT22;1389;51.490;7.338;2022-12-29T14:44:33;11.60;79.60
2763;DHT22;1389;51.490;7.338;2022-12-29T14:47:05;11.60;79.80
2763;DHT22;1389;51.490;7.338;2022-12-29T14:49:40;11.60;79.20
2763;DHT22;1389;51.490;7.338;2022-12-29T14:52:25;11.60;80.50
2763;DHT22;1389;51.490;7.338;2022-12-29T14:57:44;11.60;78.90
2763;DHT22;1389;51.490;7.338;2022-12-29T15:00:17;11.60;78.50
2763;DHT22;1389;51.490;7.338;2022-12-29T15:02:47;11.60;78.40
2763;DHT22;1389;51.490;7.338;2022-12-29T15:05:54;11.60;78.90
2763;DHT22;1389;51.490;7.338;2022-12-29T15:08:24;11.60;78.50
2763;DHT22;1389;51.490;7.338;2022-12-29T15:11:12;11.60;78.50
2763;DHT22;1389;51.490;7.338;2022-12-29T15:13:41;11.60;78.10
2763;DHT22;1389;51.490;7.338;2022-12-29T15:16:29;11.50;78.40
2763;DHT22;1389;51.490;7.338;2022-12-29T15:18:57;11.50;79.20
2763;DHT22;1389;51.490;7.338;2022-12-29T15:21:32;11.50;78.40
2763;DHT22;1389;51.490;7.338;2022-12-29T15:23:59;11.50;78.40
2763;DHT22;1389;51.490;7.338;2022-12-29T15:26:44;11.50;79.10
2763;DHT22;1389;51.490;7.338;2022-12-29T15:29:39;11.50;78.70
2763;DHT22;1389;51.490;7.338;2022-12-29T15:34:41;11.50;79.60
2763;DHT22;1389;51.490;7.338;2022-12-29T15:37:08;11.50;78.50
2763;DHT22;1389;51.490;7.338;2022-12-29T15:39:35;11.40;78.00
2763;DHT22;1389;51.490;7.338;2022-12-29T15:45:11;11.40;78.90
2763;DHT22;1389;51.490;7.338;2022-12-29T15:47:39;11.40;78.40
2763;DHT22;1389;51.490;7.338;2022-12-29T15:50:14;11.40;78.30
2763;DHT22;1389;51.490;7.338;2022-12-29T15:52:41;11.40;79.10
2763;DHT22;1389;51.490;7.338;2022-12-29T15:55:19;11.40;78.00
2763;DHT22;1389;51.490;7.338;2022-12-29T15:57:46;11.40;78.70
2763;DHT22;1389;51.490;7.338;2022-12-29T16:00:34;11.40;79.60
2763;DHT22;1389;51.490;7.338;2022-12-29T16:03:04;11.40;79.10
2763;DHT22;1389;51.490;7.338;2022-12-29T16:05:39;11.40;79.30
2763;DHT22;1389;51.490;7.338;2022-12-29T16:08:32;11.40;79.10
2763;DHT22;1389;51.490;7.338;2022-12-29T16:11:01;11.40;78.70
2763;DHT22;1389;51.490;7.338;2022-12-29T16:13:31;11.40;79.80
2763;DHT22;1389;51.490;7.338;2022-12-29T16:16:24;11.40;80.40
2763;DHT22;1389;51.490;7.338;2022-12-29T16:18:47;11.40;80.10
2763;DHT22;1389;51.490;7.338;2022-12-29T16:21:28;11.40;78.70
2763;DHT22;1389;51.490;7.338;2022-12-29T16:24:00;11.30;78.70
2763;DHT22;1389;51.490;7.338;2022-12-29T16:26:26;11.30;79.60
2763;DHT22;1389;51.490;7.338;2022-12-29T16:29:12;11.30;79.90
2763;DHT22;1389;51.490;7.338;2022-12-29T16:31:56;11.30;79.20
2763;DHT22;1389;51.490;7.338;2022-12-29T16:34:31;11.30;79.50
2763;DHT22;1389;51.490;7.338;2022-12-29T16:37:03;11.30;78.50
2763;DHT22;1389;51.490;7.338;2022-12-29T16:39:37;11.20;78.90
2763;DHT22;1389;51.490;7.338;2022-12-29T16:50:32;11.10;79.50
2763;DHT22;1389;51.490;7.338;2022-12-29T16:52:58;11.10;79.70
2763;DHT22;1389;51.490;7.338;2022-12-29T16:55:24;11.10;79.50
2763;DHT22;1389;51.490;7.338;2022-12-29T16:57:52;11.10;79.20
2763;DHT22;1389;51.490;7.338;2022-12-29T17:00:23;11.10;79.50
2763;DHT22;1389;51.490;7.338;2022-12-29T17:02:52;11.00;80.20
2763;DHT22;1389;51.490;7.338;2022-12-29T17:05:19;11.00;79.90
2763;DHT22;1389;51.490;7.338;2022-12-29T17:07:46;10.90;80.40
2763;DHT22;1389;51.490;7.338;2022-12-29T17:10:12;11.00;79.60
2763;DHT22;1389;51.490;7.338;2022-12-29T17:12:41;11.00;80.10
2763;DHT22;1389;51.490;7.338;2022-12-29T17:15:18;11.00;80.80
2763;DHT22;1389;51.490;7.338;2022-12-29T17:17:47;11.00;80.50
2763;DHT22;1389;51.490;7.338;2022-12-29T17:20:29;11.00;79.40
2763;DHT22;1389;51.490;7.338;2022-12-29T17:22:56;11.00;79.80
2763;DHT22;1389;51.490;7.338;2022-12-29T17:25:36;11.00;79.80
2763;DHT22;1389;51.490;7.338;2022-12-29T17:28:20;11.00;80.60
2763;DHT22;1389;51.490;7.338;2022-12-29T17:30:47;11.00;78.90
2763;DHT22;1389;51.490;7.338;2022-12-29T17:33:16;11.00;78.50
2763;DHT22;1389;51.490;7.338;2022-12-29T17:35:42;11.00;79.20
2763;DHT22;1389;51.490;7.338;2022-12-29T17:38:20;11.00;78.30
2763;DHT22;1389;51.490;7.338;2022-12-29T17:40:46;10.90;78.00
2763;DHT22;1389;51.490;7.338;2022-12-29T17:43:14;10.90;78.40
2763;DHT22;1389;51.490;7.338;2022-12-29T17:45:41;10.90;78.50
2763;DHT22;1389;51.490;7.338;2022-12-29T17:48:16;10.90;78.70
2763;DHT22;1389;51.490;7.338;2022-12-29T17:50:43;10.90;79.10
2763;DHT22;1389;51.490;7.338;2022-12-29T17:53:19;10.90;79.20
2763;DHT22;1389;51.490;7.338;2022-12-29T17:55:46;10.80;79.60
2763;DHT22;1389;51.490;7.338;2022-12-29T17:58:16;10.80;80.60
2763;DHT22;1389;51.490;7.338;2022-12-29T18:00:43;10.60;81.10
2763;DHT22;1389;51.490;7.338;2022-12-29T18:03:17;10.40;83.20
2763;DHT22;1389;51.490;7.338;2022-12-29T18:05:44;10.10;84.70
2763;DHT22;1389;51.490;7.338;2022-12-29T18:08:10;9.80;85.50
2763;DHT22;1389;51.490;7.338;2022-12-29T18:10:37;9.70;86.80
2763;DHT22;1389;51.490;7.338;2022-12-29T18:13:04;9.60;86.90
2763;DHT22;1389;51.490;7.338;2022-12-29T18:15:35;9.60;87.60
2763;DHT22;1389;51.490;7.338;2022-12-29T18:18:13;9.50;88.00
2763;DHT22;1389;51.490;7.338;2022-12-29T18:20:41;9.40;88.80
2763;DHT22;1389;51.490;7.338;2022-12-29T18:23:30;9.30;89.40
2763;DHT22;1389;51.490;7.338;2022-12-29T18:26:03;9.30;89.90
2763;DHT22;1389;51.490;7.338;2022-12-29T18:28:30;9.30;90.20
2763;DHT22;1389;51.490;7.338;2022-12-29T18:30:58;9.20;90.60
2763;DHT22;1389;51.490;7.338;2022-12-29T18:33:25;9.20;91.00
2763;DHT22;1389;51.490;7.338;2022-12-29T18:36:12;9.20;91.00
2763;DHT22;1389;51.490;7.338;2022-12-29T18:38:38;9.20;91.00